3AU

Augusta Municipal Airport

Augusta, Kansas, USA
METAR K3AU 201815Z AUTO 13015KT 10SM CLR 15/00 A3028 RMK AO2
Observed Flight Rules
Apr-20 @ 18:15 UTC (11 minutes ago) Visual Flight Rules
Wind Visibility Clouds
130° at 15 knots 10 miles
  • Clear skies
Temperatures Readings
Current 15°C / 59°F
Dewpoint 0°C / 32°F
Humidity 36%
Altimeter 30.28" Hg
Pressure 1025 hPa
Elevation 405
METAR K3AU 201815Z AUTO 13015KT 10SM CLR 15/00 A3028 RMK AO2
Observed Flight Rules
Apr-20 @ 18:15 UTC
(11 minutes ago)
VFR
Wind Visibility
130° at 15 knots 10 miles
Clouds
  • Clear skies
Temperature Dewpoint
15°C / 59°F 0°C / 32°F
Humidity Altimeter Pressure
36% 30.28" Hg 1025 hPa